createdAt,value
2022-08-16T00:02:30.118Z,13.40
2022-08-16T00:04:59.692Z,12.60
2022-08-16T00:07:29.423Z,13.23
2022-08-16T00:09:57.265Z,12.40
2022-08-16T00:12:24.571Z,11.32
2022-08-16T00:14:56.791Z,13.43
2022-08-16T00:17:25.327Z,11.32
2022-08-16T00:19:55.076Z,13.20
2022-08-16T00:22:24.972Z,16.75
2022-08-16T00:24:53.484Z,13.90
2022-08-16T00:27:21.579Z,12.57
2022-08-16T00:29:48.506Z,13.75
2022-08-16T00:32:32.750Z,12.35
2022-08-16T00:35:00.581Z,12.85
2022-08-16T00:37:56.271Z,14.63
2022-08-16T00:40:34.895Z,13.85
2022-08-16T00:43:12.143Z,17.15
2022-08-16T00:45:57.906Z,13.50
2022-08-16T00:48:30.944Z,13.88
2022-08-16T00:50:58.867Z,16.63
2022-08-16T00:53:30.885Z,14.65
2022-08-16T00:56:05.477Z,16.02
2022-08-16T00:58:35.372Z,14.35
2022-08-16T01:01:03.396Z,15.35
2022-08-16T01:03:37.335Z,15.32
2022-08-16T01:06:39.765Z,15.60
2022-08-16T01:09:00.128Z,17.92
2022-08-16T01:11:29.729Z,17.98
2022-08-16T01:14:02.478Z,14.82
2022-08-16T01:16:30.974Z,13.98
2022-08-16T01:19:02.796Z,14.98
2022-08-16T01:21:39.796Z,14.80
2022-08-16T01:24:51.871Z,15.88
2022-08-16T01:27:18.435Z,18.90
2022-08-16T01:29:58.008Z,18.13
2022-08-16T01:32:33.167Z,13.63
2022-08-16T01:35:16.816Z,14.02
2022-08-16T01:37:53.051Z,16.38
2022-08-16T01:40:26.508Z,17.85
2022-08-16T01:42:55.530Z,13.27
2022-08-16T01:45:23.574Z,14.77
2022-08-16T01:48:19.853Z,15.35
2022-08-16T01:51:08.959Z,17.98
2022-08-16T01:53:40.638Z,14.70
2022-08-16T01:56:24.290Z,15.15
2022-08-16T01:58:54.011Z,16.40
2022-08-16T02:01:21.264Z,16.75
2022-08-16T02:03:50.665Z,17.83
2022-08-16T02:06:33.649Z,16.27
2022-08-16T02:09:05.242Z,19.33
2022-08-16T02:11:47.600Z,18.27
2022-08-16T02:14:21.417Z,16.75
2022-08-16T02:16:49.462Z,18.65
2022-08-16T02:19:17.381Z,18.65
2022-08-16T02:22:09.268Z,19.57
2022-08-16T02:24:40.920Z,20.90
2022-08-16T02:27:10.074Z,17.73
2022-08-16T02:29:41.359Z,21.25
2022-08-16T02:32:49.192Z,22.33
2022-08-16T02:34:57.445Z,17.50
2022-08-16T02:37:24.274Z,19.38
2022-08-16T02:40:13.101Z,20.75
2022-08-16T02:42:45.067Z,19.42
2022-08-16T02:45:13.124Z,16.65
2022-08-16T02:48:01.894Z,18.20
2022-08-16T02:50:54.787Z,21.48
2022-08-16T02:53:18.004Z,18.15
2022-08-16T02:55:46.033Z,17.13
2022-08-16T02:58:18.767Z,19.67
2022-08-16T03:00:50.266Z,19.40
2022-08-16T03:03:17.599Z,22.50
2022-08-16T03:05:44.906Z,18.17
2022-08-16T03:08:52.593Z,18.75
2022-08-16T03:11:04.425Z,21.50
2022-08-16T03:13:40.006Z,19.33
2022-08-16T03:16:07.433Z,22.00
2022-08-16T03:18:54.953Z,19.80
2022-08-16T03:21:22.696Z,20.38
2022-08-16T03:23:50.550Z,22.15
2022-08-16T03:28:46.834Z,19.13
2022-08-16T03:31:15.003Z,18.90
2022-08-16T03:36:30.248Z,23.25
2022-08-16T03:38:57.023Z,26.98
2022-08-16T03:41:25.637Z,20.10
2022-08-16T03:43:58.538Z,26.85
2022-08-16T03:46:47.259Z,25.95
2022-08-16T03:49:13.249Z,23.92
2022-08-16T03:51:41.665Z,22.05
2022-08-16T03:54:12.600Z,22.80
2022-08-16T03:56:57.067Z,24.95
2022-08-16T03:59:29.881Z,23.70
2022-08-16T04:01:57.782Z,25.60
2022-08-16T04:04:33.584Z,22.30
2022-08-16T04:07:02.740Z,23.00
2022-08-16T04:09:35.710Z,25.10
2022-08-16T04:12:03.938Z,24.02
2022-08-16T04:14:46.480Z,24.13
2022-08-16T04:17:15.716Z,26.13
2022-08-16T04:19:45.686Z,25.20
2022-08-16T04:22:17.179Z,24.17
2022-08-16T04:24:54.379Z,23.02
2022-08-16T04:27:22.045Z,23.60
2022-08-16T04:29:53.448Z,27.50
2022-08-16T04:32:30.294Z,21.88
2022-08-16T04:34:57.633Z,22.33
2022-08-16T04:37:24.393Z,26.38
2022-08-16T04:39:55.385Z,25.95
2022-08-16T04:42:26.132Z,23.75
2022-08-16T04:44:55.765Z,23.15
2022-08-16T04:47:25.418Z,21.63
2022-08-16T04:49:59.401Z,24.02
2022-08-16T04:52:32.822Z,24.65
2022-08-16T04:55:03.434Z,27.50
2022-08-16T04:57:30.549Z,26.63
2022-08-16T04:59:58.696Z,31.50
2022-08-16T05:05:17.676Z,30.23
2022-08-16T05:07:57.837Z,31.90
2022-08-16T05:10:26.092Z,36.53
2022-08-16T05:12:53.681Z,30.70
2022-08-16T05:15:22.128Z,31.25
2022-08-16T05:17:58.371Z,34.30
2022-08-16T05:20:39.403Z,30.98
2022-08-16T05:23:13.757Z,26.17
2022-08-16T05:25:47.978Z,32.15
2022-08-16T05:28:16.638Z,29.02
2022-08-16T05:30:45.758Z,28.75
2022-08-16T05:33:18.092Z,25.08
2022-08-16T05:35:55.059Z,29.67
2022-08-16T05:38:31.038Z,26.58
2022-08-16T05:41:04.438Z,24.42
2022-08-16T05:43:31.915Z,27.40
2022-08-16T05:46:00.609Z,32.85
2022-08-16T05:48:27.966Z,31.25
2022-08-16T05:50:54.759Z,29.95
2022-08-16T05:53:24.143Z,27.90
2022-08-16T05:55:51.997Z,25.67
2022-08-16T05:58:31.979Z,24.55
2022-08-16T06:01:02.242Z,20.30
2022-08-16T06:03:29.756Z,18.38
2022-08-16T06:05:56.813Z,14.93
2022-08-16T06:08:31.772Z,16.38
2022-08-16T06:11:02.381Z,17.38
2022-08-16T06:13:37.437Z,17.65
2022-08-16T06:16:18.086Z,15.50
2022-08-16T06:18:46.140Z,14.25
2022-08-16T06:21:13.475Z,17.08
2022-08-16T06:23:51.096Z,19.42
2022-08-16T06:26:21.323Z,17.05
2022-08-16T06:28:48.498Z,18.90
2022-08-16T06:31:18.251Z,12.60
2022-08-16T06:33:51.907Z,13.75
2022-08-16T06:36:21.027Z,16.63
2022-08-16T06:41:27.359Z,15.82
2022-08-16T06:43:54.486Z,16.33
2022-08-16T06:46:31.832Z,16.23
2022-08-16T06:49:00.122Z,13.50
2022-08-16T06:51:45.807Z,16.40
2022-08-16T06:54:16.603Z,17.10
2022-08-16T06:56:43.451Z,13.20
2022-08-16T06:59:10.732Z,13.73
2022-08-16T07:01:44.714Z,15.85
2022-08-16T07:04:13.556Z,16.48
2022-08-16T07:07:00.895Z,14.05
2022-08-16T07:09:29.570Z,16.88
2022-08-16T07:12:03.173Z,15.93
2022-08-16T07:14:31.235Z,17.40
2022-08-16T07:17:00.804Z,17.50
2022-08-16T07:20:03.906Z,15.82
2022-08-16T07:22:38.110Z,11.82
2022-08-16T07:25:06.059Z,18.40
2022-08-16T07:27:33.875Z,22.33
2022-08-16T07:30:38.223Z,17.42
2022-08-16T07:32:55.461Z,15.05
2022-08-16T07:35:23.340Z,17.05
2022-08-16T07:37:50.102Z,19.17
2022-08-16T07:40:17.869Z,17.30
2022-08-16T07:42:45.600Z,19.67
2022-08-16T07:45:12.429Z,18.38
2022-08-16T07:47:42.082Z,19.83
2022-08-16T07:50:56.309Z,19.40
2022-08-16T07:53:00.106Z,14.77
2022-08-16T07:55:28.815Z,13.00
2022-08-16T07:58:18.270Z,19.23
2022-08-16T08:01:00.256Z,16.88
2022-08-16T08:03:35.881Z,16.42
2022-08-16T08:06:10.365Z,16.83
2022-08-16T08:08:49.225Z,19.58
2022-08-16T08:11:19.283Z,18.05
2022-08-16T08:13:46.674Z,18.17
2022-08-16T08:16:18.543Z,14.65
2022-08-16T08:18:50.240Z,18.35
2022-08-16T08:21:18.891Z,18.75
2022-08-16T08:23:53.777Z,18.17
2022-08-16T08:26:21.516Z,20.50
2022-08-16T08:28:51.317Z,20.48
2022-08-16T08:31:19.446Z,14.52
2022-08-16T08:33:51.634Z,19.43
2022-08-16T08:36:33.125Z,20.55
2022-08-16T08:39:00.525Z,16.10
2022-08-16T08:41:27.976Z,16.55
2022-08-16T08:43:56.556Z,17.13
2022-08-16T08:46:25.010Z,15.55
2022-08-16T08:49:02.217Z,17.02
2022-08-16T08:51:35.690Z,19.42
2022-08-16T08:54:07.009Z,21.23
2022-08-16T08:56:36.140Z,15.38
2022-08-16T08:59:12.776Z,18.30
2022-08-16T09:01:57.223Z,20.02
2022-08-16T09:04:26.085Z,16.52
2022-08-16T09:06:55.678Z,16.35
2022-08-16T09:09:22.589Z,16.48
2022-08-16T09:12:03.914Z,17.77
2022-08-16T09:14:34.749Z,18.80
2022-08-16T09:17:11.466Z,16.17
2022-08-16T09:19:44.972Z,20.98
2022-08-16T09:22:21.108Z,15.27
2022-08-16T09:24:53.184Z,13.88
2022-08-16T09:27:21.374Z,15.25
2022-08-16T09:30:00.309Z,15.98
2022-08-16T09:32:28.562Z,18.10
2022-08-16T09:34:58.786Z,15.00
2022-08-16T09:37:29.614Z,17.95
2022-08-16T09:39:57.187Z,14.38
2022-08-16T09:42:27.876Z,20.20
2022-08-16T09:45:10.952Z,11.85
2022-08-16T09:47:57.343Z,15.88
2022-08-16T09:50:25.986Z,13.57
2022-08-16T09:53:03.189Z,16.48
2022-08-16T09:55:31.476Z,11.13
2022-08-16T09:57:58.254Z,14.57
2022-08-16T10:00:44.974Z,13.38
2022-08-16T10:03:12.330Z,12.73
2022-08-16T10:05:39.882Z,14.15
2022-08-16T10:08:25.990Z,16.85
2022-08-16T10:10:54.690Z,11.20
2022-08-16T10:13:21.481Z,12.73
2022-08-16T10:15:54.994Z,7.68
2022-08-16T10:19:00.232Z,9.20
2022-08-16T10:21:10.675Z,14.73
2022-08-16T10:23:39.509Z,12.65
2022-08-16T10:28:53.699Z,18.92
2022-08-16T10:31:45.572Z,12.98
2022-08-16T10:34:31.615Z,15.85
2022-08-16T10:36:55.465Z,13.40
2022-08-16T10:39:24.252Z,18.35
2022-08-16T10:41:51.256Z,9.57
2022-08-16T10:44:18.023Z,13.88
2022-08-16T10:46:45.795Z,12.07
2022-08-16T10:49:16.724Z,12.77
2022-08-16T10:52:02.990Z,11.27
2022-08-16T10:54:34.158Z,8.57
2022-08-16T10:57:24.386Z,8.15
2022-08-16T10:59:58.261Z,7.72
2022-08-16T11:02:58.198Z,10.75
2022-08-16T11:05:15.291Z,12.47
2022-08-16T11:07:52.562Z,9.13
2022-08-16T11:13:58.247Z,10.45
2022-08-16T11:16:25.374Z,9.57
2022-08-16T11:19:06.303Z,12.90
2022-08-16T11:21:36.385Z,14.73
2022-08-16T11:24:04.435Z,11.48
2022-08-16T11:27:18.703Z,10.23
2022-08-16T11:29:39.872Z,12.35
2022-08-16T11:32:07.600Z,14.32
2022-08-16T11:35:05.883Z,10.90
2022-08-16T11:37:27.672Z,12.75
2022-08-16T11:40:12.006Z,12.75
2022-08-16T11:42:43.448Z,19.52
2022-08-16T11:45:12.221Z,14.90
2022-08-16T11:47:39.045Z,14.50
2022-08-16T11:50:08.130Z,13.35
2022-08-16T11:52:35.483Z,9.60
2022-08-16T11:55:08.840Z,9.10
2022-08-16T11:57:36.514Z,14.73
2022-08-16T12:00:07.730Z,9.40
2022-08-16T12:02:55.173Z,14.63
2022-08-16T12:05:23.867Z,14.27
2022-08-16T12:07:50.707Z,13.50
2022-08-16T12:10:19.309Z,18.55
2022-08-16T12:12:46.784Z,13.63
2022-08-16T12:15:15.414Z,10.23
2022-08-16T12:17:43.109Z,11.80
2022-08-16T12:20:18.770Z,15.55
2022-08-16T12:22:46.748Z,14.77
2022-08-16T12:25:16.687Z,13.82
2022-08-16T12:27:45.042Z,11.55
2022-08-16T12:30:26.981Z,15.05
2022-08-16T12:33:00.627Z,13.00
2022-08-16T12:35:31.864Z,16.40
2022-08-16T12:38:00.171Z,13.75
2022-08-16T12:42:59.458Z,17.13
2022-08-16T12:45:31.500Z,11.88
2022-08-16T12:48:29.451Z,10.63
2022-08-16T12:50:49.449Z,9.05
2022-08-16T12:53:17.899Z,15.40
2022-08-16T12:55:44.753Z,16.98
2022-08-16T12:58:13.758Z,13.13
2022-08-16T13:01:01.810Z,11.55
2022-08-16T13:03:28.664Z,11.68
2022-08-16T13:06:00.126Z,14.70
2022-08-16T13:08:30.806Z,10.88
2022-08-16T13:10:58.742Z,14.05
2022-08-16T13:13:26.949Z,12.45
2022-08-16T13:16:00.895Z,11.07
2022-08-16T13:18:34.276Z,10.45
2022-08-16T13:21:02.958Z,12.70
2022-08-16T13:25:57.124Z,13.60
2022-08-16T13:28:24.508Z,13.18
2022-08-16T13:30:54.180Z,13.40
2022-08-16T13:33:29.239Z,8.38
2022-08-16T13:36:00.690Z,13.18
2022-08-16T13:38:31.388Z,9.52
2022-08-16T13:41:05.803Z,9.38
2022-08-16T13:43:37.317Z,8.05
2022-08-16T13:46:04.920Z,11.40
2022-08-16T13:48:43.317Z,8.32
2022-08-16T13:51:17.464Z,11.02
2022-08-16T13:53:45.488Z,7.93
2022-08-16T13:56:22.321Z,12.45
2022-08-16T13:58:54.753Z,8.25
2022-08-16T14:01:22.620Z,7.68
2022-08-16T14:03:49.572Z,8.73
2022-08-16T14:06:23.043Z,7.28
2022-08-16T14:08:59.123Z,8.63
2022-08-16T14:11:34.478Z,8.05
2022-08-16T14:14:01.968Z,8.73
2022-08-16T14:16:33.639Z,5.95
2022-08-16T14:19:02.211Z,8.18
2022-08-16T14:21:34.833Z,9.13
2022-08-16T14:24:07.877Z,5.13
2022-08-16T14:26:49.008Z,8.65
2022-08-16T14:31:49.546Z,6.50
2022-08-16T14:34:25.525Z,7.45
2022-08-16T14:36:54.132Z,6.78
2022-08-16T14:39:24.511Z,6.55
2022-08-16T14:41:53.614Z,7.43
2022-08-16T14:44:23.531Z,12.40
2022-08-16T14:46:52.811Z,10.20
2022-08-16T14:49:20.109Z,9.60
2022-08-16T14:54:17.820Z,8.07
2022-08-16T14:56:46.870Z,12.27
2022-08-16T14:59:22.902Z,9.70
2022-08-16T15:01:59.022Z,8.13
2022-08-16T15:04:32.459Z,8.10
2022-08-16T15:07:06.910Z,7.65
2022-08-16T15:09:44.309Z,9.68
2022-08-16T15:12:33.671Z,6.93
2022-08-16T15:15:04.499Z,7.43
2022-08-16T15:17:40.600Z,12.13
2022-08-16T15:20:15.173Z,7.65
2022-08-16T15:22:47.593Z,10.68
2022-08-16T15:25:20.713Z,7.57
2022-08-16T15:27:55.063Z,5.75
2022-08-16T15:30:57.874Z,9.38
2022-08-16T15:33:15.318Z,5.97
2022-08-16T15:35:43.206Z,9.65
2022-08-16T15:38:54.968Z,7.88
2022-08-16T15:41:00.574Z,11.25
2022-08-16T15:43:39.089Z,11.02
2022-08-16T15:46:08.703Z,9.02
2022-08-16T15:48:35.527Z,8.95
2022-08-16T15:51:08.434Z,7.13
2022-08-16T15:53:41.841Z,8.63
2022-08-16T15:56:14.994Z,7.13
2022-08-16T15:58:42.454Z,12.32
2022-08-16T16:01:10.498Z,8.20
2022-08-16T16:03:38.286Z,6.63
2022-08-16T16:06:05.644Z,9.05
2022-08-16T16:08:33.605Z,7.15
2022-08-16T16:11:03.894Z,12.35
2022-08-16T16:13:35.260Z,11.32
2022-08-16T16:16:04.537Z,10.45
2022-08-16T16:18:40.138Z,7.38
2022-08-16T16:21:10.316Z,7.68
2022-08-16T16:23:44.406Z,14.13
2022-08-16T16:26:20.452Z,10.10
2022-08-16T16:29:08.551Z,10.75
2022-08-16T16:31:37.163Z,11.45
2022-08-16T16:34:07.359Z,7.53
2022-08-16T16:36:37.456Z,10.70
2022-08-16T16:39:07.039Z,9.88
2022-08-16T16:41:37.702Z,12.25
2022-08-16T16:44:09.260Z,10.32
2022-08-16T16:46:45.189Z,8.70
2022-08-16T16:49:24.301Z,9.90
2022-08-16T16:51:53.275Z,21.25
2022-08-16T16:54:28.539Z,7.32
2022-08-16T16:56:56.490Z,8.52
2022-08-16T16:59:28.009Z,9.50
2022-08-16T17:02:38.718Z,13.07
2022-08-16T17:04:47.322Z,11.02
2022-08-16T17:07:15.248Z,7.72
2022-08-16T17:09:42.065Z,8.50
2022-08-16T17:12:09.467Z,10.80
2022-08-16T17:14:42.822Z,9.45
2022-08-16T17:17:09.771Z,9.85
2022-08-16T17:19:41.163Z,9.68
2022-08-16T17:22:14.079Z,10.00
2022-08-16T17:24:50.910Z,11.50
2022-08-16T17:27:20.040Z,13.27
2022-08-16T17:30:15.957Z,32.20
2022-08-16T17:32:48.699Z,13.93
2022-08-16T17:35:23.103Z,48.95
2022-08-16T17:37:54.253Z,22.67
2022-08-16T17:40:46.027Z,13.23
2022-08-16T17:43:16.154Z,12.07
2022-08-16T17:45:45.741Z,25.33
2022-08-16T17:48:12.898Z,51.15
2022-08-16T17:50:40.284Z,26.00
2022-08-16T17:53:10.617Z,8.85
2022-08-16T17:55:40.178Z,13.57
2022-08-16T17:58:20.995Z,51.78
2022-08-16T18:00:54.301Z,39.03
2022-08-16T18:04:07.640Z,14.45
2022-08-16T18:06:12.653Z,8.32
2022-08-16T18:08:41.154Z,22.08
2022-08-16T18:11:10.160Z,13.00
2022-08-16T18:13:42.366Z,8.23
2022-08-16T18:16:11.043Z,10.15
2022-08-16T18:18:37.850Z,9.50
2022-08-16T18:21:08.065Z,10.95
2022-08-16T18:23:38.168Z,13.15
2022-08-16T18:26:07.446Z,26.45
2022-08-16T18:28:34.914Z,7.93
2022-08-16T18:31:05.631Z,13.55
2022-08-16T18:33:43.248Z,6.75
2022-08-16T18:36:20.949Z,7.63
2022-08-16T18:38:51.410Z,10.93
2022-08-16T18:41:23.309Z,7.72
2022-08-16T18:44:22.481Z,8.73
2022-08-16T18:46:39.369Z,10.27
2022-08-16T18:51:35.789Z,9.23
2022-08-16T18:54:02.787Z,10.02
2022-08-16T18:56:55.957Z,7.03
2022-08-16T18:59:17.031Z,9.43
2022-08-16T19:01:44.587Z,9.73
2022-08-16T19:04:50.339Z,6.07
2022-08-16T19:07:00.359Z,6.68
2022-08-16T19:09:27.162Z,9.05
2022-08-16T19:11:54.121Z,8.77
2022-08-16T19:14:21.699Z,11.80
2022-08-16T19:16:48.467Z,9.93
2022-08-16T19:19:16.824Z,9.50
2022-08-16T19:21:45.607Z,7.82
2022-08-16T19:24:17.815Z,10.32
2022-08-16T19:26:45.818Z,10.23
2022-08-16T19:29:16.377Z,11.55
2022-08-16T19:31:47.043Z,15.63
2022-08-16T19:34:15.838Z,13.82
2022-08-16T19:36:42.619Z,15.95
2022-08-16T19:39:11.011Z,18.95
2022-08-16T19:41:42.219Z,16.08
2022-08-16T19:44:09.528Z,17.05
2022-08-16T19:46:37.761Z,20.40
2022-08-16T19:49:08.713Z,23.20
2022-08-16T19:51:39.961Z,21.48
2022-08-16T19:54:07.669Z,22.27
2022-08-16T19:56:34.427Z,18.70
2022-08-16T19:59:18.757Z,19.95
2022-08-16T20:01:47.467Z,23.13
2022-08-16T20:04:15.529Z,19.15
2022-08-16T20:06:43.733Z,20.30
2022-08-16T20:09:15.210Z,22.38
2022-08-16T20:11:42.989Z,23.77
2022-08-16T20:14:10.781Z,24.23
2022-08-16T20:16:40.630Z,19.65
2022-08-16T20:19:07.473Z,24.42
2022-08-16T20:21:38.008Z,21.42
2022-08-16T20:24:32.700Z,22.88
2022-08-16T20:26:54.313Z,24.00
2022-08-16T20:29:24.195Z,25.30
2022-08-16T20:31:51.367Z,26.02
2022-08-16T20:34:19.047Z,30.63
2022-08-16T20:36:48.550Z,26.08
2022-08-16T20:39:16.682Z,29.17
2022-08-16T20:44:15.759Z,31.17
2022-08-16T20:46:50.232Z,27.33
2022-08-16T20:49:17.065Z,34.05
2022-08-16T20:51:49.377Z,30.05
2022-08-16T20:54:20.268Z,25.33
2022-08-16T20:56:47.276Z,29.33
2022-08-16T20:59:14.495Z,24.63
2022-08-16T21:01:46.605Z,28.40
2022-08-16T21:04:19.821Z,28.50
2022-08-16T21:06:53.500Z,30.50
2022-08-16T21:09:24.440Z,28.40
2022-08-16T21:11:56.424Z,27.33
2022-08-16T21:14:23.591Z,25.08
2022-08-16T21:16:51.970Z,26.38
2022-08-16T21:19:19.376Z,21.98
2022-08-16T21:21:46.352Z,22.98
2022-08-16T21:24:15.941Z,24.73
2022-08-16T21:26:53.927Z,25.63
2022-08-16T21:29:24.800Z,24.65
2022-08-16T21:31:54.248Z,22.80
2022-08-16T21:34:21.164Z,26.17
2022-08-16T21:36:47.960Z,22.27
2022-08-16T21:39:16.482Z,25.98
2022-08-16T21:41:44.620Z,26.27
2022-08-16T21:44:12.775Z,26.35
2022-08-16T21:46:45.912Z,23.17
2022-08-16T21:49:14.471Z,24.80
2022-08-16T21:51:41.869Z,25.33
2022-08-16T21:54:09.111Z,24.25
2022-08-16T21:56:35.892Z,26.23
2022-08-16T21:59:06.314Z,24.25
2022-08-16T22:01:33.116Z,25.08
2022-08-16T22:04:35.221Z,25.92
2022-08-16T22:06:47.312Z,26.50
2022-08-16T22:09:14.504Z,25.35
2022-08-16T22:11:41.948Z,25.50
2022-08-16T22:14:13.421Z,26.15
2022-08-16T22:16:40.975Z,24.88
2022-08-16T22:19:08.109Z,27.00
2022-08-16T22:21:35.743Z,23.63
2022-08-16T22:24:02.918Z,23.80
2022-08-16T22:26:41.033Z,23.10
2022-08-16T22:29:14.054Z,24.65
2022-08-16T22:31:42.260Z,25.17
2022-08-16T22:34:09.230Z,25.48
2022-08-16T22:36:37.716Z,24.42
2022-08-16T22:39:08.120Z,27.73
2022-08-16T22:41:35.728Z,24.55
2022-08-16T22:44:06.902Z,23.40
2022-08-16T22:46:37.304Z,25.83
2022-08-16T22:49:05.692Z,22.48
2022-08-16T22:51:32.503Z,25.67
2022-08-16T22:54:34.216Z,25.15
2022-08-16T22:56:52.252Z,24.92
2022-08-16T22:59:19.033Z,27.20
2022-08-16T23:01:49.796Z,26.88
2022-08-16T23:04:17.432Z,25.40
2022-08-16T23:06:44.192Z,26.05
2022-08-16T23:09:11.031Z,24.17
2022-08-16T23:11:39.532Z,25.92
2022-08-16T23:14:06.399Z,25.93
2022-08-16T23:16:34.812Z,25.23
2022-08-16T23:21:57.624Z,24.85
2022-08-16T23:24:29.448Z,24.58
2022-08-16T23:29:31.058Z,23.92
2022-08-16T23:32:11.074Z,26.58
2022-08-16T23:34:39.794Z,27.02
2022-08-16T23:37:09.385Z,26.08
2022-08-16T23:39:36.392Z,26.90
2022-08-16T23:42:11.693Z,26.52
2022-08-16T23:44:58.503Z,24.42
2022-08-16T23:47:26.712Z,24.63
2022-08-16T23:50:02.557Z,24.45
2022-08-16T23:52:42.204Z,26.35
2022-08-16T23:55:17.996Z,25.23
2022-08-16T23:57:45.848Z,26.30
